Time;durP1;ratioP1;P1;durP2;ratioP2;P2;SDS_P1;SDS_P2;PMS_P1;PMS_P2;Temp;Humidity;BMP_temperature;BMP_pressure;BME280_temperature;BME280_humidity;BME280_pressure;Samples;Min_cycle;Max_cycle;Signal;HPM_P1;HPM_P2
2022/08/26 00:01:00;;;;;;;8.85;4.47;;;;;;;20.17;100.00;101579.88;5205835;28;20092;-73
2022/08/26 00:03:30;;;;;;;10.82;4.65;;;;;;;20.21;100.00;101579.47;5205460;28;20045;-73
2022/08/26 00:06:01;;;;;;;13.50;4.60;;;;;;;20.18;100.00;101580.72;5204186;28;20033;-71
2022/08/26 00:08:31;;;;;;;16.55;5.22;;;;;;;20.15;100.00;101583.88;5205451;28;20431;-73
2022/08/26 00:11:02;;;;;;;8.93;4.70;;;;;;;20.14;100.00;101585.78;5206041;28;20083;-73
2022/08/26 00:13:34;;;;;;;10.57;5.10;;;;;;;20.10;100.00;101581.78;5205701;28;20025;-73
2022/08/26 00:16:07;;;;;;;12.50;4.88;;;;;;;20.09;100.00;101579.28;5204100;28;20029;-75
2022/08/26 00:18:38;;;;;;;14.23;4.95;;;;;;;20.14;100.00;101590.38;5200329;28;20030;-72
2022/08/26 00:21:09;;;;;;;12.73;4.25;;;;;;;20.16;100.00;101582.81;5197206;28;20025;-73
2022/08/26 00:23:40;;;;;;;12.15;4.82;;;;;;;20.09;100.00;101582.00;5205607;28;20487;-73
2022/08/26 00:26:11;;;;;;;10.00;4.28;;;;;;;20.12;100.00;101585.13;5203742;28;20054;-76
2022/08/26 00:28:42;;;;;;;14.95;4.05;;;;;;;20.07;100.00;101584.09;5205400;28;20029;-74
2022/08/26 00:31:12;;;;;;;8.77;3.65;;;;;;;20.07;100.00;101579.47;5205169;28;20029;-73
2022/08/26 00:33:44;;;;;;;12.65;3.92;;;;;;;20.03;100.00;101585.53;5204986;28;20080;-73
2022/08/26 00:36:15;;;;;;;15.95;3.30;;;;;;;20.04;100.00;101579.09;5204645;28;20033;-73
2022/08/26 00:38:45;;;;;;;11.32;3.25;;;;;;;20.04;100.00;101579.09;5205467;28;20017;-74
2022/08/26 00:41:18;;;;;;;21.25;3.70;;;;;;;20.02;100.00;101582.00;5205245;28;20491;-73
2022/08/26 00:43:50;;;;;;;10.60;3.53;;;;;;;20.03;100.00;101580.09;5204895;28;20267;-72
2022/08/26 00:46:40;;;;;;;7.20;2.90;;;;;;;20.01;100.00;101574.03;5204560;28;20506;-72
2022/08/26 00:49:18;;;;;;;8.95;2.35;;;;;;;20.04;100.00;101574.47;5203868;28;20021;-72
2022/08/26 00:51:52;;;;;;;10.50;2.40;;;;;;;20.04;100.00;101569.03;5204982;28;20033;-72
2022/08/26 00:54:26;;;;;;;9.23;2.33;;;;;;;20.03;100.00;101569.22;5203884;28;20033;-72
2022/08/26 00:57:01;;;;;;;9.93;2.13;;;;;;;19.97;100.00;101573.63;5205007;28;20467;-72
2022/08/26 00:59:32;;;;;;;6.93;2.20;;;;;;;19.94;100.00;101574.06;5204556;28;20108;-72
2022/08/26 01:02:03;;;;;;;7.30;2.00;;;;;;;19.92;100.00;101579.69;5204274;28;20451;-73
2022/08/26 01:04:37;;;;;;;9.98;1.90;;;;;;;19.91;100.00;101588.06;5204535;28;20403;-72
2022/08/26 01:07:08;;;;;;;8.53;1.90;;;;;;;19.95;100.00;101586.63;5204287;28;20029;-72
2022/08/26 01:09:39;;;;;;;6.60;2.17;;;;;;;19.86;100.00;101585.97;5204805;28;20469;-74
2022/08/26 01:12:10;;;;;;;11.82;2.67;;;;;;;19.89;100.00;101582.03;5204974;28;20074;-74
2022/08/26 01:14:40;;;;;;;5.35;1.50;;;;;;;19.91;100.00;101580.75;5203017;28;20386;-74
2022/08/26 01:17:11;;;;;;;4.22;1.67;;;;;;;19.87;100.00;101575.94;5204342;28;20044;-73
2022/08/26 01:19:47;;;;;;;10.20;1.55;;;;;;;19.84;100.00;101579.09;5204326;28;20048;-73
2022/08/26 01:22:22;;;;;;;11.60;2.35;;;;;;;19.79;100.00;101587.88;5204903;28;20080;-74
2022/08/26 01:24:53;;;;;;;5.35;1.50;;;;;;;19.76;100.00;101582.84;5204238;28;20026;-73
2022/08/26 01:27:26;;;;;;;6.38;1.45;;;;;;;19.75;100.00;101580.34;5204704;28;20021;-75
2022/08/26 01:29:57;;;;;;;5.88;1.60;;;;;;;19.76;100.00;101582.00;5203423;28;20068;-75
2022/08/26 01:32:30;;;;;;;4.53;1.58;;;;;;;19.78;100.00;101594.38;5204511;28;20028;-75
2022/08/26 01:35:01;;;;;;;8.65;1.75;;;;;;;19.74;100.00;101590.41;5203706;28;20036;-75
2022/08/26 01:37:33;;;;;;;5.22;1.13;;;;;;;19.75;100.00;101589.34;5203949;28;20479;-76
2022/08/26 01:40:11;;;;;;;12.35;1.45;;;;;;;19.73;100.00;101585.13;5203954;28;20026;-76
2022/08/26 01:42:42;;;;;;;5.85;1.30;;;;;;;19.71;100.00;101588.06;5204174;28;20034;-73
2022/08/26 01:45:18;;;;;;;10.65;2.03;;;;;;;19.69;100.00;101594.78;5204023;28;20060;-75
2022/08/26 01:47:52;;;;;;;5.70;1.77;;;;;;;19.70;100.00;101591.03;5204407;28;20025;-74
2022/08/26 01:50:29;;;;;;;5.00;1.30;;;;;;;19.73;100.00;101596.03;5203980;28;20052;-73
2022/08/26 01:53:04;;;;;;;10.68;1.83;;;;;;;19.66;100.00;101598.75;5203580;28;20052;-73
2022/08/26 01:55:37;;;;;;;5.32;1.30;;;;;;;19.62;100.00;101592.03;5203516;28;20028;-75
2022/08/26 01:58:16;;;;;;;8.50;2.00;;;;;;;19.67;100.00;101594.97;5203839;28;20021;-74
2022/08/26 02:00:48;;;;;;;3.28;1.40;;;;;;;19.64;100.00;101595.41;5203413;28;20036;-74
2022/08/26 02:03:21;;;;;;;8.38;1.65;;;;;;;19.64;100.00;101592.69;5203068;28;20029;-74
2022/08/26 02:05:56;;;;;;;6.70;1.52;;;;;;;19.65;100.00;101597.09;5190488;28;20447;-74
2022/08/26 02:08:35;;;;;;;6.68;1.88;;;;;;;19.60;100.00;101600.41;5203543;28;20120;-74
2022/08/26 02:11:06;;;;;;;8.63;1.98;;;;;;;19.52;100.00;101597.03;5203584;28;20025;-76
2022/08/26 02:13:40;;;;;;;7.57;1.90;;;;;;;19.52;100.00;101603.31;5203134;28;20502;-74
2022/08/26 02:16:16;;;;;;;4.53;2.03;;;;;;;19.59;100.00;101603.34;5203034;28;20035;-74
2022/08/26 02:18:47;;;;;;;8.02;2.00;;;;;;;19.56;100.00;101599.13;5190456;28;20299;-75
2022/08/26 02:21:18;;;;;;;3.80;1.55;;;;;;;19.50;100.00;101599.97;5203591;28;20458;-75
2022/08/26 02:23:49;;;;;;;14.57;1.48;;;;;;;19.45;100.00;101596.19;5203419;28;20104;-74
2022/08/26 02:26:24;;;;;;;8.93;1.70;;;;;;;19.53;100.00;101607.72;5202749;28;20399;-74
2022/08/26 02:29:04;;;;;;;6.15;2.03;;;;;;;19.50;100.00;101610.00;5203133;28;20029;-74
2022/08/26 02:31:34;;;;;;;6.53;1.48;;;;;;;19.48;100.00;101609.34;5202334;28;20036;-74
2022/08/26 02:34:22;;;;;;;7.28;1.55;;;;;;;19.38;100.00;101612.50;5203218;28;20021;-73
2022/08/26 02:36:55;;;;;;;5.85;1.35;;;;;;;19.37;100.00;101608.91;5191812;28;20029;-73
2022/08/26 02:39:28;;;;;;;6.10;1.58;;;;;;;19.37;100.00;101614.38;5200111;28;20026;-73
2022/08/26 02:41:58;;;;;;;6.07;1.70;;;;;;;19.37;100.00;101613.53;5193879;28;20086;-73
2022/08/26 02:44:29;;;;;;;6.82;2.00;;;;;;;19.37;100.00;101610.81;5202907;28;20021;-73
2022/08/26 02:46:59;;;;;;;6.57;1.70;;;;;;;19.31;100.00;101603.47;5203479;28;20493;-73
2022/08/26 02:49:30;;;;;;;4.22;1.40;;;;;;;19.33;100.00;101609.56;5203215;28;20030;-74
2022/08/26 02:52:00;;;;;;;6.53;1.55;;;;;;;19.25;100.00;101605.13;5202994;28;20027;-74
2022/08/26 02:54:31;;;;;;;10.68;1.45;;;;;;;19.32;100.00;101596.97;5202517;28;20502;-74
2022/08/26 02:57:02;;;;;;;9.57;1.63;;;;;;;19.28;100.00;101602.03;5203139;28;20017;-74
2022/08/26 02:59:34;;;;;;;6.85;1.60;;;;;;;19.27;100.00;101603.03;5201938;28;20036;-73
2022/08/26 03:02:06;;;;;;;11.40;1.63;;;;;;;19.27;100.00;101599.47;5203097;28;20029;-74
2022/08/26 03:04:38;;;;;;;7.57;1.85;;;;;;;19.23;100.00;101603.66;5201486;28;20025;-73
2022/08/26 03:07:08;;;;;;;3.72;1.50;;;;;;;19.19;100.00;101595.09;5203089;28;20497;-73
2022/08/26 03:09:39;;;;;;;5.20;1.55;;;;;;;19.21;100.00;101598.44;5203273;28;20033;-73
2022/08/26 03:12:10;;;;;;;9.07;1.83;;;;;;;19.23;100.00;101604.53;5201479;28;20100;-74
2022/08/26 03:14:41;;;;;;;7.03;2.08;;;;;;;19.20;100.00;101609.53;5202607;28;20437;-73
2022/08/26 03:17:11;;;;;;;6.53;2.25;;;;;;;19.18;100.00;101608.88;5202931;28;20159;-74
2022/08/26 03:19:42;;;;;;;7.25;1.60;;;;;;;19.17;100.00;101607.19;5202173;28;20391;-73
2022/08/26 03:22:12;;;;;;;6.38;2.05;;;;;;;19.10;100.00;101599.03;5202814;28;20025;-73
2022/08/26 03:24:43;;;;;;;6.40;1.88;;;;;;;19.11;100.00;101601.53;5205214;28;20025;-74
2022/08/26 03:27:14;;;;;;;7.90;1.58;;;;;;;19.11;100.00;101604.25;5207183;28;20033;-73
2022/08/26 03:32:34;;;;;;;9.93;2.38;;;;;;;19.09;100.00;101600.91;5207123;28;20041;-73
2022/08/26 03:35:05;;;;;;;12.80;2.00;;;;;;;19.03;100.00;101600.91;5205696;28;20033;-74
2022/08/26 03:37:35;;;;;;;8.40;2.20;;;;;;;19.03;100.00;101600.91;5206660;28;20040;-75
2022/08/26 03:40:09;;;;;;;9.40;2.05;;;;;;;19.01;100.00;101601.09;5206898;28;20031;-73
2022/08/26 03:42:40;;;;;;;7.88;2.00;;;;;;;19.03;100.00;101598.19;5206686;28;20068;-74
2022/08/26 03:45:12;;;;;;;6.20;1.90;;;;;;;18.96;100.00;101595.41;5205876;28;20021;-74
2022/08/26 03:47:43;;;;;;;14.13;2.40;;;;;;;19.01;100.00;101594.81;5206143;28;20025;-74
2022/08/26 03:50:16;;;;;;;11.93;2.35;;;;;;;18.97;100.00;101594.38;5206432;28;20097;-74
2022/08/26 03:52:47;;;;;;;7.47;1.75;;;;;;;18.99;100.00;101597.75;5206401;28;20076;-74
2022/08/26 03:55:20;;;;;;;9.95;2.63;;;;;;;18.98;100.00;101600.66;5205335;28;20025;-74
2022/08/26 03:57:51;;;;;;;8.68;2.20;;;;;;;18.93;100.00;101603.16;5206003;28;20033;-74
2022/08/26 04:00:22;;;;;;;5.88;1.83;;;;;;;18.96;100.00;101594.56;5205855;28;20033;-73
2022/08/26 04:02:52;;;;;;;9.88;2.05;;;;;;;18.89;100.00;101592.69;5206269;28;20025;-74
2022/08/26 04:05:24;;;;;;;4.68;2.03;;;;;;;18.98;100.00;101590.63;5205278;28;20053;-74
2022/08/26 04:07:54;;;;;;;6.50;2.10;;;;;;;19.00;100.00;101590.41;5206259;28;20017;-74
2022/08/26 04:10:26;;;;;;;6.20;1.85;;;;;;;18.96;100.00;101591.84;5205714;28;20055;-73
2022/08/26 04:12:58;;;;;;;10.77;2.85;;;;;;;18.92;100.00;101591.41;5206172;28;20041;-73
2022/08/26 04:15:28;;;;;;;16.35;2.20;;;;;;;18.92;100.00;101602.28;5205478;28;20426;-76
2022/08/26 04:17:59;;;;;;;7.05;2.00;;;;;;;18.89;100.00;101597.28;5205832;28;20029;-75
2022/08/26 04:20:30;;;;;;;7.55;1.65;;;;;;;18.83;100.00;101600.81;5204674;28;20025;-75
2022/08/26 04:23:01;;;;;;;7.55;2.28;;;;;;;18.79;100.00;101597.66;5203979;28;20108;-75
2022/08/26 04:25:31;;;;;;;5.25;1.90;;;;;;;18.80;100.00;101588.44;5205247;28;20021;-75
2022/08/26 04:28:02;;;;;;;7.32;1.77;;;;;;;18.77;100.00;101601.59;5201313;28;20025;-75
2022/08/26 04:30:36;;;;;;;5.30;1.85;;;;;;;18.83;100.00;101592.66;5205337;28;20032;-75
2022/08/26 04:33:07;;;;;;;7.53;2.67;;;;;;;18.82;100.00;101586.34;5205718;28;20032;-74
2022/08/26 04:35:37;;;;;;;3.45;1.70;;;;;;;18.82;100.00;101593.69;5204340;28;20025;-74
2022/08/26 04:38:09;;;;;;;7.45;2.05;;;;;;;18.84;100.00;101591.63;5205494;28;20391;-74
2022/08/26 04:40:58;;;;;;;9.18;2.03;;;;;;;18.81;100.00;101595.56;5205337;28;20021;-74
2022/08/26 04:43:29;;;;;;;6.15;1.20;;;;;;;18.74;100.00;101599.31;5205314;28;20029;-73
2022/08/26 04:46:02;;;;;;;13.32;2.65;;;;;;;18.75;100.00;101599.09;5204467;28;20064;-75
2022/08/26 04:48:33;;;;;;;4.30;1.67;;;;;;;18.74;100.00;101608.28;5205171;28;20036;-74
2022/08/26 04:51:04;;;;;;;6.28;1.90;;;;;;;18.70;100.00;101604.28;5205612;28;20029;-76
2022/08/26 04:53:34;;;;;;;11.18;2.05;;;;;;;18.73;100.00;101620.22;5203535;28;20082;-75
2022/08/26 04:56:05;;;;;;;5.80;1.45;;;;;;;18.73;100.00;101614.78;5204537;28;20502;-76
2022/08/26 04:58:35;;;;;;;9.45;1.88;;;;;;;18.70;100.00;101619.78;5204372;28;20029;-76
2022/08/26 05:01:07;;;;;;;12.27;2.13;;;;;;;18.68;100.00;101616.41;5205632;28;20422;-77
2022/08/26 05:03:37;;;;;;;6.93;2.05;;;;;;;18.78;100.00;101620.44;5205118;28;20100;-75
2022/08/26 05:06:08;;;;;;;6.28;1.52;;;;;;;18.83;100.00;101619.84;5205218;28;20430;-74
2022/08/26 05:08:38;;;;;;;8.05;2.20;;;;;;;18.80;100.00;101620.25;5204642;28;20037;-75
2022/08/26 05:11:09;;;;;;;7.45;2.00;;;;;;;18.79;100.00;101615.84;5205294;28;20033;-75
2022/08/26 05:13:40;;;;;;;10.52;1.92;;;;;;;18.79;100.00;101616.69;5205261;28;20383;-74
2022/08/26 05:16:13;;;;;;;4.95;1.65;;;;;;;18.85;100.00;101615.88;5204753;28;20025;-75
2022/08/26 05:18:44;;;;;;;4.55;1.58;;;;;;;18.82;100.00;101627.13;5205026;28;20187;-75
2022/08/26 05:21:18;;;;;;;8.80;2.30;;;;;;;18.89;100.00;101625.31;5203534;28;20032;-74
2022/08/26 05:23:50;;;;;;;11.02;1.90;;;;;;;18.88;100.00;101628.22;5204470;28;20079;-71
2022/08/26 05:26:23;;;;;;;11.20;1.95;;;;;;;18.91;100.00;101632.41;5203504;28;20112;-73
2022/08/26 05:28:55;;;;;;;4.78;1.35;;;;;;;19.01;100.00;101627.44;5203550;28;20031;-73
2022/08/26 05:31:28;;;;;;;3.70;1.25;;;;;;;19.00;100.00;101629.31;5204051;28;20061;-73
2022/08/26 05:34:01;;;;;;;4.90;1.40;;;;;;;19.00;100.00;101614.88;5204040;28;20017;-73
2022/08/26 05:36:33;;;;;;;8.32;1.73;;;;;;;19.08;100.00;101625.59;5203592;28;20120;-74
2022/08/26 05:39:05;;;;;;;6.43;1.20;;;;;;;19.11;100.00;101622.47;5203851;28;20104;-74
2022/08/26 05:41:39;;;;;;;7.75;2.00;;;;;;;19.11;100.00;101627.91;5204189;28;20555;-74
2022/08/26 05:44:12;;;;;;;6.03;1.02;;;;;;;19.18;100.00;101628.78;5202963;28;20029;-72
2022/08/26 05:46:44;;;;;;;4.75;1.25;;;;;;;19.23;100.00;101631.72;5203832;28;20046;-73
2022/08/26 05:49:15;;;;;;;4.90;1.40;;;;;;;19.22;100.00;101645.50;5203669;28;20025;-71
2022/08/26 05:51:45;;;;;;;6.30;1.23;;;;;;;19.22;100.00;101638.19;5203880;28;20110;-73
2022/08/26 05:54:16;;;;;;;7.53;1.40;;;;;;;19.27;100.00;101641.13;5203024;28;20025;-71
2022/08/26 05:56:46;;;;;;;4.97;1.08;;;;;;;19.34;100.00;101649.31;5203451;28;20056;-71
2022/08/26 05:59:17;;;;;;;7.45;1.35;;;;;;;19.40;100.00;101648.50;5203381;28;20025;-72
2022/08/26 06:01:48;;;;;;;17.02;1.58;;;;;;;19.38;100.00;101654.16;5203683;28;20041;-72
2022/08/26 06:04:18;;;;;;;8.82;1.48;;;;;;;19.44;100.00;101646.22;5194113;28;20030;-73
2022/08/26 06:06:49;;;;;;;6.18;1.48;;;;;;;19.45;100.00;101651.44;5181494;28;20196;-72
2022/08/26 06:09:20;;;;;;;6.85;1.42;;;;;;;19.49;100.00;101658.16;5195072;28;20037;-73
2022/08/26 06:11:51;;;;;;;6.00;1.23;;;;;;;19.51;100.00;101655.22;5200896;28;20457;-72
2022/08/26 06:14:21;;;;;;;3.30;1.00;;;;;;;19.50;100.00;101656.28;5200126;28;20502;-72
2022/08/26 06:16:52;;;;;;;8.45;1.98;;;;;;;19.49;100.00;101654.59;5199819;28;20482;-72
2022/08/26 06:19:22;;;;;;;7.13;1.33;;;;;;;19.50;100.00;101654.38;5200353;28;20060;-72
2022/08/26 06:21:53;;;;;;;6.90;1.65;;;;;;;19.50;100.00;101651.66;5199795;28;20026;-71
2022/08/26 06:27:13;;;;;;;6.28;1.17;;;;;;;19.48;100.00;101656.50;5189043;28;20360;-72
2022/08/26 06:29:43;;;;;;;7.75;1.27;;;;;;;19.52;100.00;101656.88;5187153;28;20087;-72
2022/08/26 06:32:14;;;;;;;3.40;1.20;;;;;;;19.57;100.00;101654.41;5198814;28;20033;-72
2022/08/26 06:34:45;;;;;;;11.43;1.30;;;;;;;19.58;100.00;101648.75;5199496;28;20026;-72
2022/08/26 06:37:15;;;;;;;8.40;1.40;;;;;;;19.55;100.00;101651.06;5199463;28;20346;-72
2022/08/26 06:39:46;;;;;;;6.95;1.30;;;;;;;19.64;100.00;101652.56;5200113;28;20510;-72
2022/08/26 06:42:17;;;;;;;8.10;1.50;;;;;;;19.64;100.00;101655.28;5199675;28;20471;-72
2022/08/26 06:44:47;;;;;;;5.57;1.23;;;;;;;19.65;100.00;101663.25;5199237;28;20029;-72
2022/08/26 06:47:18;;;;;;;7.22;1.13;;;;;;;19.70;100.00;101659.91;5199506;28;20026;-73
2022/08/26 06:49:49;;;;;;;6.00;1.13;;;;;;;19.75;100.00;101664.72;5199960;28;20029;-73
2022/08/26 06:52:19;;;;;;;6.55;1.42;;;;;;;19.75;100.00;101672.91;5199432;28;20171;-72
2022/08/26 06:54:50;;;;;;;4.93;1.02;;;;;;;19.81;100.00;101661.19;5199240;28;20026;-72
2022/08/26 06:57:20;;;;;;;8.15;1.30;;;;;;;19.80;100.00;101665.78;5199191;28;20104;-72
2022/08/26 06:59:51;;;;;;;3.60;1.20;;;;;;;19.79;100.00;101666.84;5202361;28;20032;-72
2022/08/26 07:02:22;;;;;;;5.38;1.17;;;;;;;19.82;100.00;101669.13;5204275;28;20461;-72
2022/08/26 07:04:52;;;;;;;1.98;1.02;;;;;;;19.90;100.00;101671.66;5203603;28;20025;-72
2022/08/26 07:07:23;;;;;;;6.40;1.17;;;;;;;19.97;100.00;101676.25;5202548;28;20654;-72
2022/08/26 07:09:54;;;;;;;5.13;1.10;;;;;;;20.07;100.00;101673.97;5203844;28;20033;-73
2022/08/26 07:12:25;;;;;;;6.25;1.00;;;;;;;20.30;100.00;101679.84;5203901;28;20017;-73
2022/08/26 07:14:55;;;;;;;15.38;1.13;;;;;;;20.43;100.00;101676.25;5203481;28;20137;-72
2022/08/26 07:17:27;;;;;;;7.45;1.15;;;;;;;20.56;100.00;101679.00;5203288;28;20525;-72
2022/08/26 07:19:57;;;;;;;4.40;1.10;;;;;;;20.66;100.00;101673.13;5203065;28;20477;-73
2022/08/26 07:22:28;;;;;;;5.43;1.13;;;;;;;20.92;100.00;101673.03;5203604;28;20026;-72
2022/08/26 07:24:58;;;;;;;5.25;1.10;;;;;;;20.96;100.00;101681.63;5203213;28;20075;-72
2022/08/26 07:27:30;;;;;;;4.80;1.10;;;;;;;21.02;100.00;101675.31;5202920;28;20037;-72
2022/08/26 07:30:01;;;;;;;4.38;1.00;;;;;;;21.09;100.00;101672.59;5190034;28;20472;-72
2022/08/26 07:32:31;;;;;;;4.82;1.65;;;;;;;21.09;100.00;101672.59;5203097;28;20079;-72
2022/08/26 07:35:03;;;;;;;6.55;1.27;;;;;;;21.11;100.00;101675.91;5202928;28;20029;-72
2022/08/26 07:37:34;;;;;;;8.70;1.58;;;;;;;21.40;100.00;101680.03;5202901;28;20079;-72
2022/08/26 07:40:05;;;;;;;8.35;1.60;;;;;;;21.78;100.00;101674.53;5203758;28;20273;-72
2022/08/26 07:42:35;;;;;;;5.55;1.25;;;;;;;22.67;100.00;101675.28;5203389;28;20037;-72
2022/08/26 07:45:06;;;;;;;7.68;1.83;;;;;;;23.31;100.00;101676.66;5202336;28;20033;-73
2022/08/26 07:47:37;;;;;;;4.38;1.33;;;;;;;23.27;100.00;101672.72;5202140;28;20021;-73
2022/08/26 07:50:07;;;;;;;8.40;1.60;;;;;;;23.20;100.00;101685.66;5203257;28;20029;-73
2022/08/26 07:52:38;;;;;;;7.32;1.92;;;;;;;22.83;100.00;101682.06;5202925;28;20026;-73
2022/08/26 07:55:09;;;;;;;5.32;1.42;;;;;;;22.55;100.00;101679.84;5200996;28;20048;-73
2022/08/26 07:57:39;;;;;;;4.32;1.63;;;;;;;22.19;100.00;101675.97;5205492;28;20039;-73
2022/08/26 08:00:14;;;;;;;8.68;1.83;;;;;;;21.93;100.00;101682.41;5203424;28;20372;-73
2022/08/26 08:02:45;;;;;;;10.93;2.08;;;;;;;21.98;100.00;101683.41;5203204;28;20129;-73
2022/08/26 08:05:19;;;;;;;5.22;1.58;;;;;;;21.94;100.00;101684.94;5202154;28;21908;-72
2022/08/26 08:07:51;;;;;;;6.35;1.70;;;;;;;21.76;100.00;101693.03;5202256;28;20021;-72
2022/08/26 08:10:24;;;;;;;11.63;2.75;;;;;;;21.69;100.00;101686.81;5201787;28;20025;-73
2022/08/26 08:12:56;;;;;;;9.15;2.47;;;;;;;21.73;100.00;101693.47;5202912;28;20028;-72
2022/08/26 08:15:29;;;;;;;7.57;3.08;;;;;;;21.63;100.00;101682.19;5201683;28;20378;-73
2022/08/26 08:18:00;;;;;;;7.35;2.80;;;;;;;21.67;100.00;101691.63;5202628;28;20033;-72
2022/08/26 08:20:32;;;;;;;4.82;2.80;;;;;;;21.67;100.00;101677.97;5201778;28;20025;-72
2022/08/26 08:23:03;;;;;;;6.97;3.03;;;;;;;21.61;100.00;101689.78;5202459;28;20021;-72
2022/08/26 08:25:33;;;;;;;10.48;2.70;;;;;;;21.58;100.00;101690.19;5201590;28;20269;-72
2022/08/26 08:28:04;;;;;;;11.05;3.08;;;;;;;21.60;100.00;101693.56;5201272;28;20028;-72
2022/08/26 08:30:37;;;;;;;6.00;2.30;;;;;;;21.64;100.00;101689.34;5201835;28;20502;-72
2022/08/26 08:33:08;;;;;;;12.80;2.90;;;;;;;21.59;100.00;101691.91;5201102;28;20052;-73
2022/08/26 08:35:39;;;;;;;8.88;2.90;;;;;;;21.48;100.00;101698.88;5201246;28;20021;-72
2022/08/26 08:38:09;;;;;;;3.88;2.45;;;;;;;21.40;100.00;101701.88;5202185;28;20026;-73
2022/08/26 08:40:42;;;;;;;5.35;2.63;;;;;;;21.43;100.00;101704.97;5202135;28;20032;-73
2022/08/26 08:43:24;;;;;;;9.88;2.88;;;;;;;21.57;100.00;101700.28;5201800;28;20061;-73
2022/08/26 08:46:02;;;;;;;7.85;2.05;;;;;;;21.63;100.00;101702.13;5201230;28;20100;-73
2022/08/26 08:48:37;;;;;;;6.05;1.98;;;;;;;21.66;100.00;101695.41;5202440;28;20471;-72
2022/08/26 08:51:16;;;;;;;;;;;;;;;21.68;100.00;101699.59;5202432;28;20028;-72
2022/08/26 08:53:50;;;;;;;7.47;2.10;;;;;;;21.67;100.00;101705.28;5200747;28;19917;-72
2022/08/26 08:56:27;;;;;;;4.93;2.20;;;;;;;21.76;100.00;101705.88;5201273;28;20546;-73
2022/08/26 08:58:58;;;;;;;5.78;1.98;;;;;;;21.67;100.00;101705.28;5201522;28;20059;-73
2022/08/26 09:01:45;;;;;;;6.65;1.55;;;;;;;21.61;100.00;101700.69;5201896;28;20026;-73
2022/08/26 09:04:50;;;;;;;8.25;1.92;;;;;;;21.52;100.00;101699.28;5187269;28;20034;-72
2022/08/26 09:07:26;;;;;;;4.22;1.77;;;;;;;21.46;100.00;101692.78;5201678;28;20034;-72
2022/08/26 09:10:02;;;;;;;6.53;1.60;;;;;;;21.40;100.00;101701.88;5201871;28;20171;-72
2022/08/26 09:12:33;;;;;;;6.47;1.10;;;;;;;21.33;100.00;101699.13;5201452;28;20431;-72
2022/08/26 09:15:13;;;;;;;4.88;1.63;;;;;;;21.34;100.00;101703.56;5201290;28;20026;-72
2022/08/26 09:18:05;;;;;;;5.90;1.63;;;;;;;21.41;100.00;101703.53;5201470;28;20032;-73
2022/08/26 09:20:50;;;;;;;9.55;1.75;;;;;;;21.53;100.00;101709.97;5187931;28;20075;-73
2022/08/26 09:23:21;;;;;;;6.40;1.58;;;;;;;21.57;100.00;101710.38;5201048;28;20057;-73
2022/08/26 09:25:56;;;;;;;5.30;1.23;;;;;;;21.76;100.00;101714.06;5200601;28;20021;-72
2022/08/26 09:28:28;;;;;;;7.60;1.25;;;;;;;21.77;100.00;101713.81;5200692;28;20833;-73
2022/08/26 09:31:20;;;;;;;4.13;1.50;;;;;;;21.82;100.00;101710.44;5195175;28;20051;-73
2022/08/26 09:34:17;;;;;;;8.55;1.42;;;;;;;21.72;100.00;101714.47;5201325;28;20402;-73
2022/08/26 09:36:52;;;;;;;5.30;1.27;;;;;;;21.82;100.00;101718.63;5189647;28;20026;-73
2022/08/26 09:39:22;;;;;;;4.30;1.48;;;;;;;21.94;100.00;101717.72;5201522;28;20026;-73
2022/08/26 09:42:05;;;;;;;8.23;1.60;;;;;;;22.03;100.00;101714.72;5199771;28;20399;-73
2022/08/26 09:44:53;;;;;;;6.47;1.50;;;;;;;22.10;100.00;101724.53;5200785;28;20036;-73
2022/08/26 09:47:30;;;;;;;2.20;1.42;;;;;;;22.15;100.00;101713.81;5198181;28;20168;-73
2022/08/26 09:50:28;;;;;;;5.57;1.33;;;;;;;22.20;100.00;101730.38;5190158;28;20059;-73
2022/08/26 09:53:20;;;;;;;3.92;1.88;;;;;;;22.17;100.00;101722.63;5188279;28;20017;-72
2022/08/26 09:56:10;;;;;;;6.72;2.40;;;;;;;22.02;100.00;101719.34;5199851;28;20029;-72
2022/08/26 09:58:44;;;;;;;6.38;1.80;;;;;;;21.94;100.00;101717.72;5201317;28;20104;-73
2022/08/26 10:01:27;;;;;;;7.90;1.40;;;;;;;22.02;100.00;101723.97;5200607;28;20108;-73
2022/08/26 10:04:35;;;;;;;7.43;1.75;;;;;;;22.11;100.00;101719.94;5200771;28;20025;-72
2022/08/26 10:07:07;;;;;;;2.80;1.38;;;;;;;22.22;100.00;101730.16;5200009;28;20025;-72
2022/08/26 10:09:41;;;;;;;3.90;1.35;;;;;;;22.34;100.00;101722.94;5199592;28;20112;-73
2022/08/26 10:12:18;;;;;;;12.23;1.67;;;;;;;22.33;100.00;101723.97;5200222;28;20052;-73
2022/08/26 10:14:57;;;;;;;4.40;1.40;;;;;;;22.30;100.00;101720.84;5199697;28;20112;-72
2022/08/26 10:17:35;;;;;;;6.35;1.67;;;;;;;22.05;100.00;101727.09;5200899;28;20383;-72
2022/08/26 10:20:09;;;;;;;8.73;1.50;;;;;;;22.03;100.00;101715.53;5200546;28;20021;-72
2022/08/26 10:22:52;;;;;;;6.10;1.23;;;;;;;21.97;100.00;101716.44;5200520;28;20025;-72
2022/08/26 10:25:45;;;;;;;4.13;1.00;;;;;;;21.95;100.00;101718.56;5187110;28;20032;-72
2022/08/26 10:28:39;;;;;;;1.90;0.85;;;;;;;21.90;100.00;101713.75;5196309;28;20026;-72
2022/08/26 10:31:42;;;;;;;4.15;1.25;;;;;;;21.81;100.00;101709.59;5198824;28;20033;-73
2022/08/26 10:34:12;;;;;;;3.33;0.82;;;;;;;21.83;100.00;101709.38;5199326;28;20061;-73
2022/08/26 10:37:01;;;;;;;3.70;1.13;;;;;;;21.77;100.00;101708.38;5200356;28;20152;-73
2022/08/26 10:39:40;;;;;;;2.83;1.17;;;;;;;21.76;100.00;101703.97;5200143;28;20026;-72
2022/08/26 10:42:46;;;;;;;3.55;1.15;;;;;;;21.81;100.00;101709.59;5199430;28;20029;-72
2022/08/26 10:45:24;;;;;;;7.40;1.60;;;;;;;21.84;100.00;101709.19;5190756;28;20067;-73
2022/08/26 10:48:09;;;;;;;3.47;0.98;;;;;;;21.87;100.00;101711.44;5200364;28;20105;-72
2022/08/26 10:50:43;;;;;;;3.33;1.05;;;;;;;21.89;100.00;101717.56;5200035;28;20036;-73
2022/08/26 10:53:14;;;;;;;4.80;0.60;;;;;;;21.85;100.00;101710.84;5199733;28;20383;-73
2022/08/26 10:56:04;;;;;;;2.22;0.80;;;;;;;21.63;100.00;101712.22;5199666;28;20337;-73
2022/08/26 10:58:41;;;;;;;3.88;1.13;;;;;;;21.52;100.00;101718.38;5199720;28;20026;-73
2022/08/26 11:01:42;;;;;;;3.38;0.93;;;;;;;21.49;100.00;101716.06;5200077;28;20395;-73
2022/08/26 11:04:38;;;;;;;4.90;0.80;;;;;;;21.49;100.00;101718.81;5198257;28;20133;-72
2022/08/26 11:07:41;;;;;;;4.50;0.95;;;;;;;21.50;100.00;101713.16;5198969;28;20033;-72
2022/08/26 11:10:51;;;;;;;4.47;0.70;;;;;;;21.53;100.00;101714.59;5199988;28;20039;-73
2022/08/26 11:14:00;;;;;;;4.13;0.90;;;;;;;21.50;100.00;101721.34;5199655;28;20039;-73
2022/08/26 11:16:33;;;;;;;7.05;1.08;;;;;;;21.48;100.00;101720.69;5199407;28;20193;-73
2022/08/26 11:19:05;;;;;;;5.90;1.15;;;;;;;21.46;100.00;101722.81;5200033;28;20026;-73
2022/08/26 11:22:05;;;;;;;4.70;0.93;;;;;;;21.63;100.00;101714.97;5195612;28;20033;-73
2022/08/26 11:24:54;;;;;;;2.17;1.05;;;;;;;21.80;100.00;101710.66;5193809;28;20407;-74
2022/08/26 11:27:24;;;;;;;3.63;0.80;;;;;;;21.91;100.00;101712.69;5199418;28;20033;-73
2022/08/26 11:30:00;;;;;;;3.65;0.90;;;;;;;22.03;100.00;101710.06;5186226;28;20029;-73
2022/08/26 11:32:49;;;;;;;2.35;0.70;;;;;;;22.20;100.00;101715.88;5199482;28;20380;-73
2022/08/26 11:35:19;;;;;;;2.25;0.80;;;;;;;22.20;100.00;101715.88;5199193;28;20029;-73
2022/08/26 11:37:54;;;;;;;2.83;0.90;;;;;;;22.09;100.00;101716.53;5200314;28;20037;-73
2022/08/26 11:40:28;;;;;;;1.35;0.75;;;;;;;21.97;100.00;101713.69;5199464;28;20440;-73
2022/08/26 11:43:06;;;;;;;2.97;0.85;;;;;;;21.55;100.00;101715.22;5199627;28;20148;-72
2022/08/26 11:45:37;;;;;;;5.82;1.48;;;;;;;21.51;100.00;101709.34;5200196;28;20032;-72
2022/08/26 11:48:28;;;;;;;1.73;0.80;;;;;;;21.59;100.00;101708.28;5203826;28;20018;-72
2022/08/26 11:51:04;;;;;;;3.25;1.00;;;;;;;21.66;100.00;101698.97;5203093;28;20098;-72
2022/08/26 11:53:37;;;;;;;2.33;0.85;;;;;;;21.88;100.00;101704.94;5202788;28;20020;-72
2022/08/26 11:56:15;;;;;;;7.00;1.10;;;;;;;22.00;100.00;101706.97;5190326;28;20064;-72